Time;durP1;ratioP1;P1;durP2;ratioP2;P2;SDS_P1;SDS_P2;PMS_P1;PMS_P2;Temp;Humidity;BMP_temperature;BMP_pressure;BME280_temperature;BME280_humidity;BME280_pressure;Samples;Min_cycle;Max_cycle;Signal;HPM_P1;HPM_P2
2023/06/01 00:08:09;;;;;;;8.8;4.2;;;;;;;9;79.6;98990;;;;
2023/06/01 00:19:11;;;;;;;8.8;4.2;;;;;;;8.9;80.1;99000;;;;
2023/06/01 00:29:09;;;;;;;8.7;4;;;;;;;8.7;80.2;99000;;;;
2023/06/01 00:40:09;;;;;;;8.7;4;;;;;;;8.5;80.8;99000;;;;
2023/06/01 00:51:11;;;;;;;8.7;4;;;;;;;8.4;83.3;99000;;;;
2023/06/01 01:01:18;;;;;;;7.9;4.5;;;;;;;8.3;83.1;98990;;;;
2023/06/01 01:11:10;;;;;;;7.9;4.5;;;;;;;8.3;83.5;98990;;;;
2023/06/01 01:22:09;;;;;;;7.9;4.5;;;;;;;8.3;82.2;98990;;;;
2023/06/01 01:33:09;;;;;;;7.5;3.8;;;;;;;8.2;82;98980;;;;
2023/06/01 01:44:09;;;;;;;7.5;3.8;;;;;;;8.3;83.4;98980;;;;
2023/06/01 01:54:09;;;;;;;7.5;3.8;;;;;;;8.2;82.3;98980;;;;
2023/06/01 02:04:09;;;;;;;7.8;4.2;;;;;;;8.1;81.5;98970;;;;
2023/06/01 02:14:09;;;;;;;7.8;4.2;;;;;;;7.9;81.4;98960;;;;
2023/06/01 02:24:09;;;;;;;7.8;4.2;;;;;;;7.7;82.6;98950;;;;
2023/06/01 02:35:09;;;;;;;7.4;3.7;;;;;;;7.6;82.6;98940;;;;
2023/06/01 02:45:09;;;;;;;7.4;3.7;;;;;;;7.7;82.7;98940;;;;
2023/06/01 02:56:10;;;;;;;8.1;4;;;;;;;7.7;82.9;98940;;;;
2023/06/01 03:06:09;;;;;;;8.1;4;;;;;;;7.7;82.7;98940;;;;
2023/06/01 03:17:09;;;;;;;8.1;4;;;;;;;7.7;82.5;98940;;;;
2023/06/01 03:27:10;;;;;;;12.4;5.5;;;;;;;7.8;82.4;98940;;;;
2023/06/01 03:37:10;;;;;;;12.4;5.5;;;;;;;7.8;83;98930;;;;
2023/06/01 03:47:09;;;;;;;12.4;5.5;;;;;;;8.2;83.7;98930;;;;
2023/06/01 03:58:09;;;;;;;8.3;3.6;;;;;;;8.6;83.7;98930;;;;
2023/06/01 04:08:10;;;;;;;8.3;3.6;;;;;;;8.9;83.3;98930;;;;
2023/06/01 04:18:09;;;;;;;8.3;3.6;;;;;;;9.4;82.6;98930;;;;
2023/06/01 04:28:10;;;;;;;8.9;4.7;;;;;;;9.9;82.1;98910;;;;
2023/06/01 04:39:09;;;;;;;8.9;4.7;;;;;;;10.6;80.7;98900;;;;
2023/06/01 04:49:11;;;;;;;8.9;4.7;;;;;;;11.2;79.5;98900;;;;
2023/06/01 04:59:09;;;;;;;10.3;6.7;;;;;;;11.9;77.1;98910;;;;
2023/06/01 05:10:09;;;;;;;10.3;6.7;;;;;;;12.5;72.8;98900;;;;
2023/06/01 05:20:11;;;;;;;10.3;6.7;;;;;;;13.2;71.9;98890;;;;
2023/06/01 05:31:09;;;;;;;12.9;7.1;;;;;;;13.7;68.7;98900;;;;
2023/06/01 05:41:09;;;;;;;12.9;7.1;;;;;;;14.2;69.3;98890;;;;
2023/06/01 05:51:09;;;;;;;12.9;7.1;;;;;;;14.6;68.3;98880;;;;
2023/06/01 06:01:10;;;;;;;10.9;6.7;;;;;;;14.9;66.1;98880;;;;
2023/06/01 06:11:09;;;;;;;10.9;6.7;;;;;;;15.4;66.8;98870;;;;
2023/06/01 06:22:10;;;;;;;10.9;6.7;;;;;;;15.9;64.1;98870;;;;
2023/06/01 06:33:09;;;;;;;13.8;7.1;;;;;;;16.2;63.4;98860;;;;
2023/06/01 06:43:09;;;;;;;13.8;7.1;;;;;;;16.8;61.9;98860;;;;
2023/06/01 06:53:09;;;;;;;13.8;7.1;;;;;;;17.1;58.8;98850;;;;
2023/06/01 07:03:09;;;;;;;16.4;10.4;;;;;;;17.5;60.1;98840;;;;
2023/06/01 07:13:10;;;;;;;16.4;10.4;;;;;;;18.1;58.1;98840;;;;
2023/06/01 07:23:12;;;;;;;16.4;10.4;;;;;;;18.2;55.5;98840;;;;
2023/06/01 07:34:10;;;;;;;18.7;10.8;;;;;;;18.7;55.5;98840;;;;
2023/06/01 07:44:10;;;;;;;18.7;10.8;;;;;;;19.1;54.3;98840;;;;
2023/06/01 07:54:10;;;;;;;18.7;10.8;;;;;;;19.4;51.7;98830;;;;
2023/06/01 08:05:10;;;;;;;12.1;6.3;;;;;;;19.8;51.3;98820;;;;
2023/06/01 08:16:10;;;;;;;12.1;6.3;;;;;;;20.2;49.6;98800;;;;
2023/06/01 08:26:10;;;;;;;11.5;5.7;;;;;;;20.5;48.1;98800;;;;
2023/06/01 08:37:10;;;;;;;11.5;5.7;;;;;;;20.7;44;98780;;;;
2023/06/01 08:47:09;;;;;;;11.5;5.7;;;;;;;21;43.9;98770;;;;
2023/06/01 08:57:09;;;;;;;7.6;3.4;;;;;;;21.3;43.2;98760;;;;
2023/06/01 09:07:09;;;;;;;7.6;3.4;;;;;;;21.4;40.5;98760;;;;
2023/06/01 09:18:10;;;;;;;7.6;3.4;;;;;;;21.8;41;98740;;;;
2023/06/01 09:28:10;;;;;;;5.5;2.9;;;;;;;21.9;37.4;98740;;;;
2023/06/01 09:38:10;;;;;;;5.5;2.9;;;;;;;21.8;37.8;98730;;;;
2023/06/01 09:48:09;;;;;;;5.5;2.9;;;;;;;22.3;37.9;98720;;;;
2023/06/01 09:59:09;;;;;;;6.3;3;;;;;;;22.6;39.7;98720;;;;
2023/06/01 10:10:10;;;;;;;6.3;3;;;;;;;22.7;37.8;98710;;;;
2023/06/01 10:21:10;;;;;;;6.3;3;;;;;;;22.8;36.9;98700;;;;
2023/06/01 10:32:10;;;;;;;7.5;3;;;;;;;22.9;37.6;98690;;;;
2023/06/01 10:43:10;;;;;;;7.5;3;;;;;;;23.2;37.1;98690;;;;
2023/06/01 10:53:09;;;;;;;7.5;3;;;;;;;23.1;36.5;98680;;;;
2023/06/01 11:04:10;;;;;;;7.7;3.4;;;;;;;23.5;37.6;98650;;;;
2023/06/01 11:15:11;;;;;;;7.7;3.4;;;;;;;23.7;37.3;98640;;;;
2023/06/01 11:25:10;;;;;;;7.7;3.4;;;;;;;24.1;38.7;98640;;;;
2023/06/01 11:36:10;;;;;;;11.6;3.1;;;;;;;24.4;35.1;98610;;;;
2023/06/01 11:46:10;;;;;;;11.6;3.1;;;;;;;24.6;34.2;98610;;;;
2023/06/01 11:57:10;;;;;;;7;3;;;;;;;25;34.5;98600;;;;
2023/06/01 12:08:09;;;;;;;7;3;;;;;;;25;32.8;98580;;;;
2023/06/01 12:19:10;;;;;;;7;3;;;;;;;25.4;32.6;98570;;;;
2023/06/01 12:30:09;;;;;;;7;2.7;;;;;;;25.2;32.2;98560;;;;
2023/06/01 12:41:11;;;;;;;7;2.7;;;;;;;25.3;30.8;98560;;;;
2023/06/01 12:51:10;;;;;;;7;2.7;;;;;;;24.8;30.9;98550;;;;
2023/06/01 13:02:10;;;;;;;7.8;2.5;;;;;;;25.2;33.6;98540;;;;
2023/06/01 13:12:10;;;;;;;7.8;2.5;;;;;;;25.2;28.8;98520;;;;
2023/06/01 13:22:10;;;;;;;7.8;2.5;;;;;;;25.5;28;98510;;;;
2023/06/01 13:32:09;;;;;;;4.7;2.1;;;;;;;25.5;27.2;98510;;;;
2023/06/01 13:42:10;;;;;;;4.7;2.1;;;;;;;26;29.4;98500;;;;
2023/06/01 13:52:10;;;;;;;4.7;2.1;;;;;;;26.2;28.3;98490;;;;
2023/06/01 14:02:11;;;;;;;6.2;2.4;;;;;;;26;27.9;98480;;;;
2023/06/01 14:12:11;;;;;;;6.2;2.4;;;;;;;26.4;28.6;98460;;;;
2023/06/01 14:22:10;;;;;;;6.2;2.4;;;;;;;26.8;27;98450;;;;
2023/06/01 14:32:10;;;;;;;7.5;2.5;;;;;;;26.7;27.5;98440;;;;
2023/06/01 14:42:10;;;;;;;7.5;2.5;;;;;;;26.9;27.1;98430;;;;
2023/06/01 14:52:10;;;;;;;7.5;2.5;;;;;;;27.3;25.8;98420;;;;
2023/06/01 15:02:10;;;;;;;5.8;2.3;;;;;;;28.7;24.4;98410;;;;
2023/06/01 15:12:10;;;;;;;5.8;2.3;;;;;;;31.8;22.9;98400;;;;
2023/06/01 15:23:10;;;;;;;5.8;2.3;;;;;;;32.3;19.8;98390;;;;
2023/06/01 15:34:10;;;;;;;5.7;2.3;;;;;;;34.9;19.1;98380;;;;
2023/06/01 15:44:10;;;;;;;5.7;2.3;;;;;;;35;19.9;98360;;;;
2023/06/01 15:55:10;;;;;;;5.7;2.3;;;;;;;34.4;19.9;98350;;;;
2023/06/01 16:06:10;;;;;;;7.1;1.6;;;;;;;34.9;19.4;98340;;;;
2023/06/01 16:17:10;;;;;;;7.1;1.6;;;;;;;35.1;19.2;98340;;;;
2023/06/01 16:27:10;;;;;;;6;2;;;;;;;34;19.8;98330;;;;
2023/06/01 16:38:10;;;;;;;6;2;;;;;;;34.7;19.7;98320;;;;
2023/06/01 16:48:10;;;;;;;6;2;;;;;;;35.3;19.8;98320;;;;
2023/06/01 16:59:10;;;;;;;6.1;2.4;;;;;;;34.6;21.4;98320;;;;
2023/06/01 17:09:10;;;;;;;6.1;2.4;;;;;;;31.5;24.1;98320;;;;
2023/06/01 17:19:10;;;;;;;6.1;2.4;;;;;;;28.9;26.9;98320;;;;
2023/06/01 17:30:10;;;;;;;9.5;2.7;;;;;;;28;28.6;98310;;;;
2023/06/01 17:40:10;;;;;;;9.5;2.7;;;;;;;29.3;27.1;98310;;;;
2023/06/01 17:50:10;;;;;;;9.5;2.7;;;;;;;30.7;25.6;98310;;;;
2023/06/01 18:00:10;;;;;;;8.3;3.1;;;;;;;29.5;26.7;98310;;;;
2023/06/01 18:11:10;;;;;;;8.3;3.1;;;;;;;26.5;31.8;98310;;;;
2023/06/01 18:21:10;;;;;;;8.3;3.1;;;;;;;24.5;34.2;98320;;;;
2023/06/01 18:32:10;;;;;;;10.2;3.5;;;;;;;22.8;37.5;98330;;;;
2023/06/01 18:43:13;;;;;;;10.2;3.5;;;;;;;21.4;40.9;98330;;;;
2023/06/01 18:54:10;;;;;;;10.2;3.5;;;;;;;20.2;45.3;98340;;;;
2023/06/01 19:05:10;;;;;;;8.1;3.8;;;;;;;19.2;45.4;98350;;;;
2023/06/01 19:16:10;;;;;;;8.1;3.8;;;;;;;18.5;48.9;98350;;;;
2023/06/01 19:26:10;;;;;;;8.1;3.8;;;;;;;17.8;50.8;98350;;;;
2023/06/01 19:37:10;;;;;;;10.5;4.6;;;;;;;17.2;53.4;98350;;;;
2023/06/01 19:47:10;;;;;;;10.5;4.6;;;;;;;16.8;53.1;98350;;;;
2023/06/01 19:57:10;;;;;;;11;5.2;;;;;;;16.5;54.1;98350;;;;
2023/06/01 20:08:10;;;;;;;11;5.2;;;;;;;16.2;55.2;98360;;;;
2023/06/01 20:18:10;;;;;;;11;5.2;;;;;;;15.8;56.3;98360;;;;
2023/06/01 20:28:10;;;;;;;10.6;5.8;;;;;;;15.5;57.5;98360;;;;
2023/06/01 20:39:10;;;;;;;10.6;5.8;;;;;;;15.1;57.5;98360;;;;
2023/06/01 20:49:10;;;;;;;10.6;5.8;;;;;;;14.9;58;98370;;;;
2023/06/01 20:59:10;;;;;;;7.8;5;;;;;;;14.6;59.3;98370;;;;
2023/06/01 21:10:10;;;;;;;7.8;5;;;;;;;14.3;60.9;98370;;;;
2023/06/01 21:20:10;;;;;;;7.8;5;;;;;;;14.1;61.4;98370;;;;
2023/06/01 21:30:10;;;;;;;9.9;4.9;;;;;;;13.8;61.8;98380;;;;
2023/06/01 21:40:10;;;;;;;9.9;4.9;;;;;;;13.6;63.3;98380;;;;
2023/06/01 21:50:10;;;;;;;9.9;4.9;;;;;;;13.3;62.8;98380;;;;
2023/06/01 22:01:10;;;;;;;7.4;5.2;;;;;;;13.1;64;98380;;;;
2023/06/01 22:12:10;;;;;;;7.4;5.2;;;;;;;12.9;65.3;98380;;;;
2023/06/01 22:22:10;;;;;;;7.4;5.2;;;;;;;12.6;65;98380;;;;
2023/06/01 22:32:10;;;;;;;9.4;3.9;;;;;;;12.5;66.9;98380;;;;
2023/06/01 22:42:10;;;;;;;9.4;3.9;;;;;;;12.3;69.4;98380;;;;
2023/06/01 22:53:10;;;;;;;9.4;3.9;;;;;;;12.2;68.5;98380;;;;
2023/06/01 23:03:10;;;;;;;7.8;3.6;;;;;;;12.1;70;98380;;;;
2023/06/01 23:14:11;;;;;;;7.8;3.6;;;;;;;12;69.9;98380;;;;
2023/06/01 23:24:10;;;;;;;7.8;3.6;;;;;;;11.9;69.6;98370;;;;
2023/06/01 23:35:11;;;;;;;7.8;4.1;;;;;;;11.8;71.5;98370;;;;
2023/06/01 23:48:53;;;;;;;7.8;4.1;;;;;;;11.9;73.9;98370;;;;
2023/06/01 23:59:52;;;;;;;7.7;4.4;;;;;;;11.8;72.6;98380;;;;
